KMML/MML METAR and TAF weather

Enter ICAO airport designator
Station Type Date Time Source
KMML METAR 2023/02/05 13:56 UTC NOAA

KMML 051356Z AUTO 33009KT 10SM OVC010 M08/M09 A3000 RMK AO2 CIG 009V012 SLP179 T10781094 FZRANO


Station Type Date Time Source
KMML Decoded METAR 2023/02/05 13:56 UTC NOAA

Marshall, Southwest Minnesota Regional Airport - Marshall/Ryan Field, MN, United States (KMML) 44-27N 095-49W
Feb 05, 2023 - 08:56 AM EST / 2023.02.05 1356 UTC
Wind: from the NNW (330 degrees) at 10 MPH (9 KT):0
Visibility: 10 mile(s):0
Sky conditions: overcast
Temperature: 18.0 F (-7.8 C)
Windchill: 6 F (-14 C):1
Dew Point: 15.1 F (-9.4 C)
Relative Humidity: 88%
Pressure (altimeter): 30 in. Hg (1015 hPa)
ob: KMML 051356Z AUTO 33009KT 10SM OVC010 M08/M09 A3000 RMK AO2 CIG 009V012 SLP179 T10781094 FZRANO
cycle: 14

Station Type Date Time Source
KMML TAF UTC NOAA

Error!

Example: see airport list